Time;durP1;ratioP1;P1;durP2;ratioP2;P2;SDS_P1;SDS_P2;PMS_P1;PMS_P2;Temp;Humidity;BMP_temperature;BMP_pressure;BME280_temperature;BME280_humidity;BME280_pressure;Samples;Min_cycle;Max_cycle;Signal;HPM_P1;HPM_P2
2022/08/25 00:00:46;;;;;;;9.35;4.03;;;23.40;99.90;;;;;;5052120;28;20123;-85
2022/08/25 00:03:12;;;;;;;10.60;3.22;;;23.30;99.90;;;;;;5052827;28;20051;-85
2022/08/25 00:05:38;;;;;;;8.63;3.20;;;23.30;99.90;;;;;;5069395;28;20036;-85
2022/08/25 00:08:05;;;;;;;7.20;3.47;;;23.20;99.90;;;;;;5068728;28;20044;-85
2022/08/25 00:10:33;;;;;;;10.32;3.38;;;23.20;99.90;;;;;;5052817;28;20064;-85
2022/08/25 00:13:02;;;;;;;12.13;3.42;;;23.20;99.90;;;;;;5050497;28;20044;-85
2022/08/25 00:15:31;;;;;;;9.90;3.30;;;23.10;99.90;;;;;;5049681;28;20479;-85
2022/08/25 00:17:57;;;;;;;7.70;3.38;;;23.10;99.90;;;;;;5037453;28;20068;-85
2022/08/25 00:20:24;;;;;;;9.70;3.92;;;23.00;99.90;;;;;;5052622;28;20657;-85
2022/08/25 00:22:50;;;;;;;8.57;3.40;;;23.00;99.90;;;;;;5052161;28;20040;-85
2022/08/25 00:25:16;;;;;;;9.00;3.40;;;22.90;99.90;;;;;;5069069;28;20093;-85
2022/08/25 00:27:42;;;;;;;8.30;3.28;;;22.90;99.90;;;;;;5068968;28;20052;-85
2022/08/25 00:30:09;;;;;;;6.60;3.03;;;22.90;99.90;;;;;;5052112;28;20036;-85
2022/08/25 00:32:35;;;;;;;10.02;3.50;;;22.80;99.90;;;;;;5052077;28;20043;-85
2022/08/25 00:35:02;;;;;;;7.40;3.20;;;22.80;99.90;;;;;;5069352;28;20044;-85
2022/08/25 00:37:27;;;;;;;9.38;3.70;;;22.80;99.90;;;;;;5051515;28;20119;-85
2022/08/25 00:39:55;;;;;;;10.10;3.65;;;22.80;99.90;;;;;;5049481;28;20128;-85
2022/08/25 00:42:21;;;;;;;8.82;3.58;;;22.70;99.90;;;;;;5050042;28;20044;-85
2022/08/25 00:44:47;;;;;;;8.75;3.58;;;22.70;99.90;;;;;;5052092;28;20405;-85
2022/08/25 00:47:13;;;;;;;9.68;3.50;;;22.70;99.90;;;;;;5069429;28;20551;-85
2022/08/25 00:49:57;;;;;;;8.05;3.25;;;22.60;99.90;;;;;;5069028;28;20055;-85
2022/08/25 00:52:33;;;;;;;8.98;3.45;;;22.60;99.90;;;;;;5069982;28;20529;-85
2022/08/25 00:55:04;;;;;;;10.80;3.70;;;22.60;99.90;;;;;;5051952;28;20036;-85
2022/08/25 00:57:37;;;;;;;8.60;3.30;;;22.50;99.90;;;;;;5054650;28;20028;-85
2022/08/25 01:00:16;;;;;;;16.90;3.63;;;22.50;99.90;;;;;;5068083;28;20036;-85
2022/08/25 01:02:42;;;;;;;8.63;3.20;;;22.50;99.90;;;;;;5051631;28;20478;-85
2022/08/25 01:05:08;;;;;;;8.77;2.88;;;22.40;99.90;;;;;;5068286;28;20075;-85
2022/08/25 01:07:34;;;;;;;7.53;3.45;;;22.40;99.90;;;;;;5051960;28;20097;-85
2022/08/25 01:10:00;;;;;;;9.10;3.33;;;22.40;99.90;;;;;;5052274;28;20045;-85
2022/08/25 01:12:26;;;;;;;8.13;3.22;;;22.40;99.90;;;;;;5067836;28;20044;-85
2022/08/25 01:14:52;;;;;;;8.68;3.03;;;22.30;99.90;;;;;;5068691;28;20044;-85
2022/08/25 01:17:19;;;;;;;8.90;3.30;;;22.30;99.90;;;;;;5052017;28;20024;-84
2022/08/25 01:19:45;;;;;;;10.07;3.33;;;22.30;99.90;;;;;;5050814;28;20521;-84
2022/08/25 01:22:11;;;;;;;9.20;3.10;;;22.20;99.90;;;;;;5048236;28;20106;-84
2022/08/25 01:25:02;;;;;;;8.02;3.38;;;22.20;99.90;;;;;;5040089;28;20037;-84
2022/08/25 01:27:28;;;;;;;8.43;3.33;;;22.20;99.90;;;;;;5048989;28;20097;-84
2022/08/25 01:29:54;;;;;;;8.82;3.28;;;22.10;99.90;;;;;;5035184;28;20421;-84
2022/08/25 01:32:20;;;;;;;9.10;3.58;;;22.10;99.90;;;;;;5068777;28;20477;-84
2022/08/25 01:34:46;;;;;;;8.45;3.10;;;22.10;99.90;;;;;;5069696;28;20079;-84
2022/08/25 01:37:14;;;;;;;8.35;3.45;;;22.00;99.90;;;;;;5056472;28;20044;-85
2022/08/25 01:39:41;;;;;;;8.40;3.05;;;22.00;99.90;;;;;;5032021;28;20064;-84
2022/08/25 01:42:25;;;;;;;9.65;3.50;;;22.00;99.90;;;;;;5056799;28;20486;-85
2022/08/25 01:44:51;;;;;;;9.48;3.30;;;21.90;99.90;;;;;;5050962;28;20069;-84
2022/08/25 01:47:17;;;;;;;8.75;3.40;;;21.90;99.90;;;;;;5067828;28;20083;-85
2022/08/25 01:49:43;;;;;;;8.52;3.47;;;21.90;99.90;;;;;;5068679;28;20047;-85
2022/08/25 01:52:22;;;;;;;7.25;3.10;;;21.90;99.90;;;;;;5068177;28;20132;-84
2022/08/25 01:54:47;;;;;;;8.45;3.67;;;21.80;99.90;;;;;;5071754;28;20069;-85
2022/08/25 01:57:14;;;;;;;9.35;3.25;;;21.80;99.90;;;;;;5073842;28;20044;-85
2022/08/25 01:59:40;;;;;;;8.65;2.97;;;21.80;99.90;;;;;;5055094;28;20064;-84
2022/08/25 02:02:06;;;;;;;7.40;3.20;;;21.80;99.90;;;;;;5073177;28;20441;-85
2022/08/25 02:04:32;;;;;;;9.45;3.45;;;21.70;99.90;;;;;;5054920;28;20119;-85
2022/08/25 02:07:00;;;;;;;10.18;3.15;;;21.70;99.90;;;;;;5062423;28;20051;-85
2022/08/25 02:09:26;;;;;;;10.45;3.83;;;21.70;99.90;;;;;;5052136;28;20048;-85
2022/08/25 02:11:51;;;;;;;10.07;3.80;;;21.70;99.90;;;;;;5051742;28;20048;-85
2022/08/25 02:14:18;;;;;;;9.95;3.50;;;21.60;99.90;;;;;;5070973;28;20032;-85
2022/08/25 02:16:48;;;;;;;10.38;3.53;;;21.60;99.90;;;;;;5072321;28;20044;-85
2022/08/25 02:19:15;;;;;;;11.35;3.47;;;21.50;99.90;;;;;;5044401;28;20033;-85
2022/08/25 02:21:41;;;;;;;8.77;3.67;;;21.50;99.90;;;;;;5051253;28;20044;-85
2022/08/25 02:24:07;;;;;;;10.35;3.72;;;21.50;99.90;;;;;;5067605;28;20490;-85
2022/08/25 02:26:33;;;;;;;8.60;3.78;;;21.50;99.90;;;;;;5054354;28;20044;-85
2022/08/25 02:28:59;;;;;;;8.82;3.28;;;21.50;99.90;;;;;;5068173;28;20496;-85
2022/08/25 02:31:25;;;;;;;7.93;3.40;;;21.40;99.90;;;;;;5034853;28;20041;-85
2022/08/25 02:33:52;;;;;;;8.63;3.60;;;21.40;99.90;;;;;;5035515;28;20037;-85
2022/08/25 02:36:18;;;;;;;9.77;3.30;;;21.30;99.90;;;;;;5058647;28;20037;-85
2022/08/25 02:38:44;;;;;;;9.57;3.70;;;21.30;99.90;;;;;;5051818;28;20044;-85
2022/08/25 02:41:16;;;;;;;9.40;3.45;;;21.30;99.90;;;;;;5037960;28;20040;-84
2022/08/25 02:43:43;;;;;;;7.35;3.35;;;21.30;99.90;;;;;;5070726;28;20048;-84
2022/08/25 02:46:10;;;;;;;7.35;3.47;;;21.20;99.90;;;;;;5071185;28;20070;-85
2022/08/25 02:48:37;;;;;;;8.90;3.65;;;21.20;99.90;;;;;;5054157;28;20032;-85
2022/08/25 02:51:05;;;;;;;9.77;3.38;;;21.20;99.90;;;;;;5070515;28;20131;-84
2022/08/25 02:53:32;;;;;;;9.07;3.45;;;21.20;99.90;;;;;;5054467;28;20044;-85
2022/08/25 02:55:58;;;;;;;6.90;3.35;;;21.20;99.90;;;;;;5038110;28;20037;-85
2022/08/25 02:58:24;;;;;;;9.43;3.55;;;21.10;99.90;;;;;;5050904;28;20033;-85
2022/08/25 03:00:50;;;;;;;8.55;3.50;;;21.10;99.90;;;;;;5057685;28;20494;-84
2022/08/25 03:03:17;;;;;;;10.20;3.55;;;21.10;99.90;;;;;;5070317;28;20036;-84
2022/08/25 03:05:43;;;;;;;8.57;3.58;;;21.00;99.90;;;;;;5069264;28;20044;-84
2022/08/25 03:08:09;;;;;;;9.05;3.72;;;21.00;99.90;;;;;;5041312;28;20037;-84
2022/08/25 03:10:36;;;;;;;10.60;3.22;;;21.00;99.90;;;;;;5034460;28;20073;-85
2022/08/25 03:13:01;;;;;;;9.80;3.67;;;21.00;99.90;;;;;;5067768;28;20048;-84
2022/08/25 03:15:27;;;;;;;7.95;3.58;;;21.00;99.90;;;;;;5070787;28;20694;-84
2022/08/25 03:17:54;;;;;;;9.77;3.65;;;20.90;99.90;;;;;;5069417;28;20501;-84
2022/08/25 03:20:21;;;;;;;8.38;3.45;;;20.90;99.90;;;;;;5053722;28;20086;-84
2022/08/25 03:22:47;;;;;;;8.85;4.00;;;20.90;99.90;;;;;;5053562;28;20036;-84
2022/08/25 03:27:58;;;;;;;10.00;3.22;;;20.80;99.90;;;;;;5070088;28;20048;-84
2022/08/25 03:30:25;;;;;;;8.60;3.47;;;20.80;99.90;;;;;;5053020;28;20128;-84
2022/08/25 03:32:51;;;;;;;10.77;3.30;;;20.80;99.90;;;;;;5070122;28;20074;-84
2022/08/25 03:35:16;;;;;;;16.75;4.00;;;20.80;99.90;;;;;;5053787;28;20037;-84
2022/08/25 03:37:42;;;;;;;9.52;3.83;;;20.70;99.90;;;;;;5055795;28;20037;-84
2022/08/25 03:40:11;;;;;;;7.63;3.70;;;20.70;99.90;;;;;;5050568;28;20462;-84
2022/08/25 03:42:44;;;;;;;7.38;3.47;;;20.70;99.90;;;;;;5052617;28;20370;-84
2022/08/25 03:45:12;;;;;;;8.32;3.55;;;20.70;99.90;;;;;;5069475;28;20043;-84
2022/08/25 03:47:39;;;;;;;7.78;3.70;;;20.60;99.90;;;;;;5069684;28;20028;-84
2022/08/25 03:50:08;;;;;;;7.65;3.80;;;20.60;99.90;;;;;;5052286;28;20037;-84
2022/08/25 03:52:36;;;;;;;8.20;3.58;;;20.60;99.90;;;;;;5053433;28;20044;-84
2022/08/25 03:55:04;;;;;;;9.60;3.70;;;20.60;99.90;;;;;;5065518;28;20418;-84
2022/08/25 03:57:30;;;;;;;7.90;3.97;;;20.60;99.90;;;;;;5054287;28;20052;-84
2022/08/25 03:59:56;;;;;;;9.23;3.70;;;20.60;99.90;;;;;;5069568;28;20037;-84
2022/08/25 04:02:21;;;;;;;9.95;3.80;;;20.60;99.90;;;;;;5052488;28;20088;-84
2022/08/25 04:04:47;;;;;;;12.43;3.80;;;20.50;99.90;;;;;;5052392;28;20127;-84
2022/08/25 04:07:12;;;;;;;9.13;3.70;;;20.50;99.90;;;;;;5053017;28;20044;-84
2022/08/25 04:09:38;;;;;;;8.48;3.90;;;20.50;99.90;;;;;;5069278;28;20029;-84
2022/08/25 04:12:04;;;;;;;10.35;3.80;;;20.50;99.90;;;;;;5066406;28;20078;-84
2022/08/25 04:14:34;;;;;;;9.43;3.78;;;20.40;99.90;;;;;;5050006;28;20072;-84
2022/08/25 04:16:59;;;;;;;9.38;3.90;;;20.40;99.90;;;;;;5032593;28;20044;-84
2022/08/25 04:19:25;;;;;;;10.55;3.70;;;20.40;99.90;;;;;;5065436;28;20033;-84
2022/08/25 04:21:51;;;;;;;9.43;3.80;;;20.40;99.90;;;;;;5069430;28;20056;-84
2022/08/25 04:24:18;;;;;;;10.25;3.67;;;20.40;99.90;;;;;;5068672;28;20498;-84
2022/08/25 04:26:49;;;;;;;8.25;3.55;;;20.40;99.90;;;;;;5050549;28;20040;-84
2022/08/25 04:29:18;;;;;;;9.90;3.83;;;20.40;99.90;;;;;;5053667;28;20032;-84
2022/08/25 04:31:48;;;;;;;9.40;3.20;;;20.30;99.90;;;;;;5053420;28;20520;-84
2022/08/25 04:34:19;;;;;;;12.73;3.83;;;20.30;99.90;;;;;;5048977;28;20047;-84
2022/08/25 04:36:45;;;;;;;9.57;3.55;;;20.30;99.90;;;;;;5060712;28;20035;-84
2022/08/25 04:39:10;;;;;;;10.95;3.97;;;20.30;99.90;;;;;;5053477;28;20040;-84
2022/08/25 04:41:36;;;;;;;9.65;4.18;;;20.30;99.90;;;;;;5051503;28;20706;-84
2022/08/25 04:44:02;;;;;;;10.60;4.10;;;20.30;99.90;;;;;;5036890;28;20045;-84
2022/08/25 04:46:31;;;;;;;8.90;4.00;;;20.30;99.90;;;;;;5048980;28;20037;-84
2022/08/25 04:48:58;;;;;;;10.15;4.47;;;20.30;99.90;;;;;;5058910;28;20079;-84
2022/08/25 04:51:30;;;;;;;12.75;4.40;;;20.30;99.90;;;;;;5068662;28;20557;-84
2022/08/25 04:54:00;;;;;;;7.65;3.80;;;20.30;99.90;;;;;;5052293;28;20405;-84
2022/08/25 04:56:26;;;;;;;8.88;3.95;;;20.30;99.90;;;;;;5068679;28;20047;-84
2022/08/25 04:58:53;;;;;;;7.88;3.38;;;20.30;99.90;;;;;;5069196;28;20410;-84
2022/08/25 05:01:21;;;;;;;10.30;4.28;;;20.30;99.90;;;;;;5067361;28;20543;-84
2022/08/25 05:03:52;;;;;;;9.57;4.05;;;20.30;99.90;;;;;;5068907;28;20051;-84
2022/08/25 05:06:18;;;;;;;11.00;4.00;;;20.30;99.90;;;;;;5068653;28;20558;-84
2022/08/25 05:08:44;;;;;;;8.63;3.80;;;20.30;99.90;;;;;;5051627;28;20129;-84
2022/08/25 05:11:13;;;;;;;8.25;3.97;;;20.30;99.90;;;;;;5068057;28;20040;-84
2022/08/25 05:13:39;;;;;;;8.70;4.07;;;20.30;99.90;;;;;;5051690;28;20037;-84
2022/08/25 05:16:06;;;;;;;9.02;4.40;;;20.20;99.90;;;;;;5039166;28;20115;-84
2022/08/25 05:18:33;;;;;;;10.35;4.10;;;20.30;99.90;;;;;;5048897;28;20124;-84
2022/08/25 05:21:05;;;;;;;10.50;4.38;;;20.30;99.90;;;;;;5056425;28;20040;-84
2022/08/25 05:23:31;;;;;;;12.30;4.70;;;20.30;99.90;;;;;;5068575;28;20049;-84
2022/08/25 05:26:05;;;;;;;8.32;4.18;;;20.30;99.90;;;;;;5067524;28;20041;-84
2022/08/25 05:28:31;;;;;;;8.88;4.70;;;20.30;99.90;;;;;;5035935;28;20418;-84
2022/08/25 05:30:59;;;;;;;9.90;4.60;;;20.30;99.90;;;;;;5051790;28;20131;-84
2022/08/25 05:33:24;;;;;;;9.85;4.13;;;20.30;99.90;;;;;;5061764;28;20037;-84
2022/08/25 05:35:50;;;;;;;9.57;4.78;;;20.30;99.90;;;;;;5067959;28;20426;-84
2022/08/25 05:38:16;;;;;;;11.10;4.68;;;20.30;99.90;;;;;;5072520;28;20036;-84
2022/08/25 05:40:42;;;;;;;9.15;4.43;;;20.30;99.90;;;;;;5055546;28;20528;-84
2022/08/25 05:43:07;;;;;;;8.93;4.60;;;20.30;99.90;;;;;;5072260;28;20480;-85
2022/08/25 05:45:33;;;;;;;10.38;4.65;;;20.40;99.90;;;;;;5070700;28;20056;-84
2022/08/25 05:47:59;;;;;;;10.95;4.35;;;20.40;99.90;;;;;;5071843;28;20041;-84
2022/08/25 05:50:24;;;;;;;9.77;4.50;;;20.40;99.90;;;;;;5071898;28;20040;-84
2022/08/25 05:52:50;;;;;;;8.38;4.47;;;20.40;99.90;;;;;;5071263;28;20032;-84
2022/08/25 05:55:16;;;;;;;9.68;4.80;;;20.40;99.90;;;;;;5071683;28;20072;-84
2022/08/25 05:57:41;;;;;;;11.35;4.65;;;20.50;99.90;;;;;;5071695;28;20390;-84
2022/08/25 06:00:08;;;;;;;10.43;4.78;;;20.50;99.90;;;;;;5051673;28;20044;-84
2022/08/25 06:02:45;;;;;;;10.10;4.95;;;20.50;99.90;;;;;;5072256;28;20043;-84
2022/08/25 06:05:20;;;;;;;9.25;4.93;;;20.60;99.90;;;;;;5054261;28;20072;-85
2022/08/25 06:07:48;;;;;;;9.57;4.75;;;20.60;99.90;;;;;;5072426;28;20055;-84
2022/08/25 06:10:15;;;;;;;9.70;4.60;;;20.60;99.90;;;;;;5072110;28;20086;-84
2022/08/25 06:12:43;;;;;;;10.40;4.90;;;20.60;99.90;;;;;;5070290;28;20033;-84
2022/08/25 06:15:11;;;;;;;10.73;5.18;;;20.70;99.90;;;;;;5072236;28;20390;-84
2022/08/25 06:17:40;;;;;;;11.18;4.82;;;20.70;99.90;;;;;;5072398;28;20041;-84
2022/08/25 06:20:12;;;;;;;10.30;5.30;;;20.80;99.90;;;;;;5045663;28;20033;-84
2022/08/25 06:22:38;;;;;;;8.77;4.80;;;20.80;99.90;;;;;;5051553;28;20379;-85
2022/08/25 06:25:04;;;;;;;9.38;5.40;;;20.80;99.90;;;;;;5062652;28;20032;-85
2022/08/25 06:27:30;;;;;;;11.52;5.43;;;20.90;99.90;;;;;;5054985;28;20059;-85
2022/08/25 06:29:56;;;;;;;9.55;5.00;;;21.00;99.90;;;;;;5054972;28;20482;-84
2022/08/25 06:32:21;;;;;;;8.90;4.57;;;21.00;99.90;;;;;;5070522;28;20048;-85
2022/08/25 06:34:47;;;;;;;10.05;4.70;;;21.10;99.90;;;;;;5071496;28;20047;-85
2022/08/25 06:37:12;;;;;;;11.95;5.20;;;21.10;99.90;;;;;;5070389;28;20055;-85
2022/08/25 06:39:38;;;;;;;10.98;5.30;;;21.20;99.90;;;;;;5050481;28;20044;-84
2022/08/25 06:42:04;;;;;;;12.45;5.15;;;21.20;99.90;;;;;;5035475;28;20037;-85
2022/08/25 06:44:30;;;;;;;10.05;4.85;;;21.30;99.90;;;;;;5070725;28;20422;-85
2022/08/25 06:46:56;;;;;;;9.68;4.55;;;21.30;99.90;;;;;;5054669;28;20040;-85
2022/08/25 06:49:22;;;;;;;10.68;4.90;;;21.40;99.90;;;;;;5053223;28;20047;-85
2022/08/25 06:51:49;;;;;;;10.98;4.82;;;21.40;99.90;;;;;;5070790;28;20066;-85
2022/08/25 06:54:14;;;;;;;10.18;4.80;;;21.50;99.90;;;;;;5070561;28;20489;-85
2022/08/25 06:56:41;;;;;;;9.00;4.95;;;21.60;99.90;;;;;;5070554;28;20040;-85
2022/08/25 06:59:07;;;;;;;9.43;4.40;;;21.60;99.90;;;;;;5069689;28;20082;-85
2022/08/25 07:01:36;;;;;;;11.60;4.80;;;21.70;99.90;;;;;;5042290;28;20140;-85
2022/08/25 07:04:04;;;;;;;12.88;4.82;;;21.80;99.90;;;;;;5034234;28;20048;-85
2022/08/25 07:06:34;;;;;;;11.15;4.57;;;21.80;99.90;;;;;;5038185;28;20051;-85
2022/08/25 07:09:01;;;;;;;10.95;4.75;;;21.90;99.90;;;;;;5036789;28;20098;-85
2022/08/25 07:11:27;;;;;;;8.57;4.35;;;22.00;99.90;;;;;;5050538;28;20041;-85
2022/08/25 07:13:52;;;;;;;10.30;4.90;;;22.00;99.90;;;;;;5041064;28;20048;-85
2022/08/25 07:16:19;;;;;;;8.48;4.25;;;22.10;99.90;;;;;;5070324;28;20032;-85
2022/08/25 07:18:46;;;;;;;9.55;4.13;;;22.20;99.90;;;;;;5054167;28;20545;-85
2022/08/25 07:21:13;;;;;;;9.95;4.45;;;22.30;99.90;;;;;;5051973;28;20046;-85
2022/08/25 07:23:40;;;;;;;9.95;4.45;;;22.30;99.90;;;;;;5065271;28;20090;-85
2022/08/25 07:26:21;;;;;;;11.63;4.38;;;22.40;99.90;;;;;;5070529;28;20036;-85
2022/08/25 07:28:47;;;;;;;10.48;4.60;;;22.50;99.90;;;;;;5069357;28;20040;-85
2022/08/25 07:31:13;;;;;;;15.10;4.18;;;22.60;99.90;;;;;;5060784;28;20120;-85
2022/08/25 07:35:13;;;;;;;11.27;4.53;;;22.70;99.90;;;;;;5039993;28;20436;-85
2022/08/25 07:36:25;;;;;;;9.20;3.95;;;22.80;99.90;;;;;;5057911;28;20091;-85
2022/08/25 07:38:50;;;;;;;10.50;4.28;;;22.90;99.90;;;;;;5060277;28;20029;-85
2022/08/25 07:41:16;;;;;;;9.63;3.70;;;23.00;99.90;;;;;;5042501;28;20040;-85
2022/08/25 07:43:43;;;;;;;10.63;4.32;;;23.00;99.90;;;;;;5057840;28;20104;-85
2022/08/25 07:46:09;;;;;;;10.05;4.53;;;23.10;99.90;;;;;;5060174;28;20326;-86
2022/08/25 07:48:35;;;;;;;10.60;4.55;;;23.20;99.90;;;;;;5069106;28;20036;-86
2022/08/25 07:51:06;;;;;;;10.50;4.13;;;23.30;99.90;;;;;;5052510;28;20033;-86
2022/08/25 07:53:32;;;;;;;8.97;4.20;;;23.40;99.90;;;;;;5053348;28;20398;-86
2022/08/25 07:55:57;;;;;;;11.52;4.57;;;23.50;99.90;;;;;;5053707;28;20799;-86
2022/08/25 07:58:23;;;;;;;10.23;4.30;;;23.50;99.90;;;;;;5041559;28;20405;-86
2022/08/25 08:00:51;;;;;;;13.25;4.07;;;23.60;99.90;;;;;;5046141;28;20037;-86
2022/08/25 08:03:18;;;;;;;10.13;5.22;;;23.70;99.90;;;;;;5069161;28;20066;-86
2022/08/25 08:05:44;;;;;;;10.23;4.70;;;23.80;99.90;;;;;;5052920;28;20094;-86
2022/08/25 08:08:09;;;;;;;12.25;4.07;;;23.90;99.90;;;;;;5069237;28;20072;-86
2022/08/25 08:10:38;;;;;;;11.25;4.80;;;24.00;99.90;;;;;;5052629;28;20076;-86
2022/08/25 08:13:04;;;;;;;9.70;4.43;;;24.10;99.90;;;;;;5032449;28;20029;-86
2022/08/25 08:15:30;;;;;;;9.02;4.15;;;24.10;99.90;;;;;;5049789;28;20044;-86
2022/08/25 08:17:57;;;;;;;9.55;4.70;;;24.20;99.90;;;;;;5069334;28;20036;-86
2022/08/25 08:20:23;;;;;;;11.00;4.60;;;24.30;99.90;;;;;;5069255;28;20076;-86
2022/08/25 08:22:49;;;;;;;8.55;4.35;;;24.40;99.90;;;;;;5051899;28;20052;-85
2022/08/25 08:25:14;;;;;;;11.13;4.40;;;24.50;99.90;;;;;;5052573;28;20110;-86
2022/08/25 08:27:41;;;;;;;8.20;4.00;;;24.50;99.90;;;;;;5046127;28;20383;-85
2022/08/25 08:30:08;;;;;;;8.93;3.80;;;24.60;99.90;;;;;;5050263;28;20083;-86
2022/08/25 08:32:34;;;;;;;9.57;4.28;;;24.70;99.90;;;;;;5056086;28;20041;-86
2022/08/25 08:35:00;;;;;;;9.70;3.97;;;24.80;99.90;;;;;;5052267;28;20056;-85
2022/08/25 08:37:26;;;;;;;10.40;4.05;;;24.90;99.90;;;;;;5052113;28;20139;-86
2022/08/25 08:39:52;;;;;;;13.20;5.03;;;25.00;99.90;;;;;;5069120;28;20279;-85
2022/08/25 08:42:41;;;;;;;10.85;4.05;;;25.10;99.90;;;;;;5068609;28;20490;-85
2022/08/25 08:45:28;;;;;;;8.98;3.80;;;25.20;99.20;;;;;;5051611;28;20051;-86
2022/08/25 08:48:33;;;;;;;7.43;3.72;;;25.30;99.00;;;;;;5051788;28;20076;-86
2022/08/25 08:51:17;;;;;;;10.48;4.05;;;25.40;98.30;;;;;;5051010;28;20040;-86
2022/08/25 08:53:51;;;;;;;8.52;3.42;;;25.50;98.40;;;;;;5051953;28;20056;-86
2022/08/25 08:56:27;;;;;;;8.57;3.88;;;25.50;98.00;;;;;;5046569;28;20379;-86
2022/08/25 08:59:25;;;;;;;6.97;3.55;;;25.70;96.90;;;;;;5032182;28;20072;-86
2022/08/25 09:02:00;;;;;;;9.48;3.03;;;25.80;97.30;;;;;;5046218;28;20087;-86
2022/08/25 09:04:47;;;;;;;12.23;3.80;;;25.90;97.40;;;;;;5051744;28;20068;-86
2022/08/25 09:07:18;;;;;;;10.75;3.42;;;26.00;95.90;;;;;;5052128;28;20059;-85
2022/08/25 09:09:44;;;;;;;8.50;3.80;;;26.10;95.60;;;;;;5067968;28;20501;-85
2022/08/25 09:12:25;;;;;;;9.35;3.40;;;26.20;93.80;;;;;;5051815;28;20401;-86
2022/08/25 09:15:08;;;;;;;9.35;3.78;;;26.30;94.10;;;;;;5068332;28;20040;-86
2022/08/25 09:17:44;;;;;;;7.63;3.00;;;26.40;92.10;;;;;;5052267;28;20081;-86
2022/08/25 09:20:28;;;;;;;8.45;3.20;;;26.50;91.50;;;;;;5051893;28;20098;-86
2022/08/25 09:23:35;;;;;;;8.55;3.58;;;26.60;89.30;;;;;;5050656;28;20045;-86
2022/08/25 09:26:15;;;;;;;9.23;3.40;;;26.70;84.90;;;;;;5037616;28;20048;-86
2022/08/25 09:28:53;;;;;;;7.90;3.05;;;26.80;84.20;;;;;;5060624;28;20044;-86
2022/08/25 09:31:34;;;;;;;8.80;3.10;;;26.90;82.60;;;;;;5051458;28;20506;-86
2022/08/25 09:34:03;;;;;;;8.30;3.13;;;27.00;79.90;;;;;;5048576;28;20052;-86
2022/08/25 09:36:31;;;;;;;7.57;3.13;;;27.10;77.80;;;;;;5048765;28;20320;-86
2022/08/25 09:38:56;;;;;;;7.25;2.80;;;27.10;79.20;;;;;;5056140;28;20033;-86
2022/08/25 09:41:50;;;;;;;8.98;3.20;;;27.30;73.40;;;;;;5048888;28;20047;-86
2022/08/25 09:44:37;;;;;;;8.82;2.60;;;27.30;74.50;;;;;;5062413;28;20604;-86
2022/08/25 09:47:10;;;;;;;8.63;3.40;;;27.40;73.50;;;;;;5061980;28;20086;-86
2022/08/25 09:49:39;;;;;;;9.15;3.25;;;27.50;70.90;;;;;;5067904;28;20140;-86
2022/08/25 09:52:28;;;;;;;11.27;3.45;;;27.60;69.20;;;;;;5051405;28;20076;-86
2022/08/25 09:54:56;;;;;;;6.93;3.00;;;27.70;69.40;;;;;;5064009;28;20510;-86
2022/08/25 09:57:43;;;;;;;9.57;3.20;;;27.80;68.60;;;;;;5048325;28;20060;-86
2022/08/25 10:00:17;;;;;;;8.73;3.15;;;27.90;69.10;;;;;;5048384;28;20041;-86
2022/08/25 10:03:17;;;;;;;9.35;3.22;;;28.00;68.30;;;;;;5050272;28;20055;-86
2022/08/25 10:06:19;;;;;;;7.38;2.92;;;28.00;66.20;;;;;;5051391;28;20977;-86
2022/08/25 10:08:44;;;;;;;7.03;2.90;;;28.10;63.70;;;;;;5013745;28;20053;-86
2022/08/25 10:11:29;;;;;;;8.60;3.00;;;28.20;63.70;;;;;;5013548;28;20095;-86
2022/08/25 10:14:12;;;;;;;8.73;3.03;;;28.30;62.70;;;;;;5018607;28;20056;-86
2022/08/25 10:16:38;;;;;;;7.00;2.95;;;28.40;63.10;;;;;;5020800;28;20051;-86
2022/08/25 10:19:06;;;;;;;7.93;2.97;;;28.40;62.50;;;;;;5006262;28;20053;-86
2022/08/25 10:21:33;;;;;;;8.07;2.83;;;28.50;60.30;;;;;;5013400;28;20045;-86
2022/08/25 10:24:01;;;;;;;7.00;2.50;;;28.60;59.10;;;;;;5024102;28;20029;-86
2022/08/25 10:26:48;;;;;;;7.57;2.88;;;28.60;58.00;;;;;;5033114;28;20525;-86
2022/08/25 10:29:52;;;;;;;6.63;2.50;;;28.70;57.10;;;;;;5032256;28;20044;-86
2022/08/25 10:32:46;;;;;;;8.05;2.80;;;28.70;57.60;;;;;;5032918;28;20052;-86
2022/08/25 10:35:17;;;;;;;6.32;2.60;;;28.80;57.20;;;;;;5033180;28;20037;-86
2022/08/25 10:38:24;;;;;;;8.73;2.95;;;28.80;57.60;;;;;;5021513;28;20044;-86
2022/08/25 10:41:05;;;;;;;9.00;3.30;;;28.90;56.00;;;;;;5013648;28;20041;-86
2022/08/25 10:43:52;;;;;;;7.43;3.08;;;28.90;56.70;;;;;;5021037;28;20041;-86
2022/08/25 10:46:51;;;;;;;10.13;3.10;;;29.00;57.60;;;;;;5050288;28;20049;-86
2022/08/25 10:49:40;;;;;;;8.32;2.95;;;29.10;57.50;;;;;;5053439;28;20451;-86
2022/08/25 10:52:35;;;;;;;8.07;2.85;;;29.20;58.50;;;;;;5053324;28;20123;-86
2022/08/25 10:55:16;;;;;;;7.25;2.40;;;29.40;57.40;;;;;;5067589;28;20133;-86
2022/08/25 10:57:59;;;;;;;7.75;2.70;;;29.40;55.40;;;;;;5053646;28;20044;-86
2022/08/25 11:00:36;;;;;;;8.38;2.92;;;29.40;54.80;;;;;;5071052;28;20359;-86
2022/08/25 11:03:22;;;;;;;7.93;2.97;;;29.50;55.20;;;;;;5053627;28;20062;-86
2022/08/25 11:06:01;;;;;;;8.02;2.67;;;29.60;55.10;;;;;;5054501;28;20036;-87
2022/08/25 11:08:27;;;;;;;8.52;2.72;;;29.70;54.60;;;;;;5049047;28;20657;-86
2022/08/25 11:11:02;;;;;;;7.97;2.65;;;29.70;54.50;;;;;;5050106;28;20132;-86
2022/08/25 11:13:46;;;;;;;7.28;2.80;;;29.90;53.20;;;;;;5036737;28;20059;-86
2022/08/25 11:16:17;;;;;;;10.13;2.90;;;29.90;52.90;;;;;;5036707;28;20116;-86
2022/08/25 11:18:52;;;;;;;8.05;2.80;;;29.90;52.70;;;;;;5037002;28;20039;-87
2022/08/25 11:21:28;;;;;;;7.72;2.35;;;30.10;51.80;;;;;;5053877;28;20040;-86
2022/08/25 11:24:19;;;;;;;6.95;2.55;;;30.10;50.90;;;;;;5053954;28;20044;-86
2022/08/25 11:26:52;;;;;;;7.17;2.57;;;30.20;52.20;;;;;;5041740;28;20045;-86
2022/08/25 11:29:20;;;;;;;7.50;2.80;;;30.30;52.60;;;;;;5063214;28;20040;-87
2022/08/25 11:31:50;;;;;;;6.82;2.70;;;30.40;51.00;;;;;;5053147;28;20037;-86
2022/08/25 11:34:17;;;;;;;6.53;2.50;;;30.50;50.10;;;;;;5053438;28;20123;-86
2022/08/25 11:36:53;;;;;;;7.60;2.80;;;30.60;50.70;;;;;;5070724;28;20036;-86
2022/08/25 11:39:52;;;;;;;7.88;2.53;;;30.70;50.50;;;;;;5053612;28;20037;-86
2022/08/25 11:42:32;;;;;;;9.70;2.70;;;30.90;50.50;;;;;;5068376;28;20493;-87
2022/08/25 11:44:58;;;;;;;7.65;3.15;;;30.90;50.10;;;;;;5033870;28;20407;-87
2022/08/25 11:47:43;;;;;;;8.18;2.65;;;31.10;50.10;;;;;;5054360;28;20048;-86
2022/08/25 11:50:34;;;;;;;8.45;2.80;;;31.10;49.90;;;;;;5052729;28;20048;-86
2022/08/25 11:53:24;;;;;;;7.13;2.72;;;31.20;49.10;;;;;;5069791;28;20040;-86
2022/08/25 11:55:52;;;;;;;7.55;3.20;;;31.30;47.70;;;;;;5069361;28;20166;-86
2022/08/25 11:58:38;;;;;;;8.70;3.50;;;31.30;49.20;;;;;;5051728;28;20048;-86
2022/08/25 12:01:07;;;;;;;7.90;2.90;;;31.50;50.00;;;;;;5048248;28;20037;-86
2022/08/25 12:03:36;;;;;;;7.00;2.55;;;31.60;48.60;;;;;;5049890;28;20051;-86
2022/08/25 12:06:20;;;;;;;9.25;2.80;;;31.80;48.40;;;;;;5052760;28;20044;-86
2022/08/25 12:08:59;;;;;;;7.90;2.58;;;31.90;48.10;;;;;;5051779;28;20506;-86
2022/08/25 12:11:37;;;;;;;7.88;2.63;;;31.90;48.80;;;;;;5049359;28;20502;-86
2022/08/25 12:14:21;;;;;;;8.35;2.78;;;32.10;48.50;;;;;;5046039;28;20041;-86
2022/08/25 12:17:16;;;;;;;9.90;2.78;;;32.20;48.40;;;;;;5044463;28;20033;-86
2022/08/25 12:19:42;;;;;;;7.90;2.67;;;32.30;47.50;;;;;;5050521;28;20033;-87
2022/08/25 12:22:07;;;;;;;7.90;2.60;;;32.50;46.40;;;;;;5031761;28;20047;-87
2022/08/25 12:24:42;;;;;;;7.50;2.47;;;32.50;46.30;;;;;;5066417;28;20464;-87
2022/08/25 12:27:19;;;;;;;33.83;4.18;;;32.50;46.70;;;;;;5051896;28;20044;-87
2022/08/25 12:30:14;;;;;;;9.05;3.10;;;32.70;46.40;;;;;;5069647;28;20036;-87
2022/08/25 12:33:06;;;;;;;10.48;3.00;;;32.80;47.10;;;;;;5049118;28;20049;-87
2022/08/25 12:35:52;;;;;;;6.45;2.72;;;32.90;47.30;;;;;;5048717;28;20510;-87
2022/08/25 12:38:42;;;;;;;7.75;2.38;;;32.80;45.90;;;;;;5046195;28;20378;-87
2022/08/25 12:41:17;;;;;;;7.13;2.50;;;32.90;45.70;;;;;;5052444;28;20052;-87
2022/08/25 12:43:45;;;;;;;7.35;2.97;;;33.00;45.90;;;;;;5051809;28;20044;-87
2022/08/25 12:46:20;;;;;;;8.65;2.92;;;33.20;45.90;;;;;;5036620;28;20040;-87
2022/08/25 12:48:56;;;;;;;6.70;2.90;;;33.20;45.30;;;;;;5049527;28;20036;-87
2022/08/25 12:51:42;;;;;;;7.82;2.88;;;33.30;44.80;;;;;;5060201;28;20037;-87
2022/08/25 12:54:31;;;;;;;7.20;3.17;;;33.40;45.10;;;;;;5061593;28;20084;-87
2022/08/25 12:57:06;;;;;;;7.63;2.97;;;33.50;45.70;;;;;;5051522;28;20089;-87
2022/08/25 12:59:36;;;;;;;7.90;3.20;;;33.70;45.70;;;;;;5068442;28;20547;-87
2022/08/25 13:02:42;;;;;;;7.28;2.70;;;34.00;45.10;;;;;;5068757;28;20094;-87
2022/08/25 13:05:39;;;;;;;8.65;3.13;;;34.30;45.40;;;;;;5045156;28;20405;-87
2022/08/25 13:08:43;;;;;;;7.68;3.20;;;34.20;45.20;;;;;;5069139;28;20113;-87